KR-0397 weather

Dongwon Royal Duke Vista Apartments Heliports
Busan, Busan Gwang'yeogsi, South Korea

Public forecast

Using degrees Celsius for public forecast. Weather courtesy of forecast.io.

METAR (pilot weather report)

Closest report is Gimhae International Airport, 6.3 nm (11.6 km) WNW. Retrieved 2019/08/17 11:00 UTC (45 minutes ago):

RKPK 171100Z 21009KT CAVOK 28/22 Q1003

TAF (pilot weather forecast)

Closest forecast is Gimhae International Airport, 6.3 nm (11.6 km) WNW. Retrieved 2019/08/17 06:00 UTC (6 hours ago):

TAF RKPK 170500Z 1706/1812 18010KT 9999 SCT030 TN26/1720Z TX32/1805Z BECMG 1714/1715 33006KT BKN030 BKN200 BECMG 1723/1724 18010KT SCT030 SCT200